sensor_id;sensor_type;location;lat;lon;timestamp;P1;durP1;ratioP1;P2;durP2;ratioP2
41233;SDS011;26968;42.686;23.352;2022-09-21T00:00:29;13.88;;;5.80;;
41233;SDS011;26968;42.686;23.352;2022-09-21T00:02:55;8.50;;;5.05;;
41233;SDS011;26968;42.686;23.352;2022-09-21T00:05:21;11.73;;;5.60;;
41233;SDS011;26968;42.686;23.352;2022-09-21T00:07:47;12.52;;;5.40;;
41233;SDS011;26968;42.686;23.352;2022-09-21T00:10:13;10.10;;;4.85;;
41233;SDS011;26968;42.686;23.352;2022-09-21T00:12:38;11.10;;;5.32;;
41233;SDS011;26968;42.686;23.352;2022-09-21T00:15:05;11.40;;;4.90;;
41233;SDS011;26968;42.686;23.352;2022-09-21T00:17:32;9.68;;;4.60;;
41233;SDS011;26968;42.686;23.352;2022-09-21T00:19:58;8.00;;;4.03;;
41233;SDS011;26968;42.686;23.352;2022-09-21T00:22:25;8.30;;;4.32;;
41233;SDS011;26968;42.686;23.352;2022-09-21T00:24:51;6.63;;;3.90;;
41233;SDS011;26968;42.686;23.352;2022-09-21T00:27:17;8.50;;;4.25;;
41233;SDS011;26968;42.686;23.352;2022-09-21T00:29:42;5.90;;;3.78;;
41233;SDS011;26968;42.686;23.352;2022-09-21T00:32:08;5.15;;;3.78;;
41233;SDS011;26968;42.686;23.352;2022-09-21T00:34:33;5.85;;;4.15;;
41233;SDS011;26968;42.686;23.352;2022-09-21T00:36:59;5.13;;;3.80;;
41233;SDS011;26968;42.686;23.352;2022-09-21T00:39:24;7.55;;;3.65;;
41233;SDS011;26968;42.686;23.352;2022-09-21T00:41:49;9.63;;;4.10;;
41233;SDS011;26968;42.686;23.352;2022-09-21T00:44:24;7.72;;;4.20;;
41233;SDS011;26968;42.686;23.352;2022-09-21T00:46:54;7.97;;;4.35;;
41233;SDS011;26968;42.686;23.352;2022-09-21T00:49:23;6.35;;;4.28;;
41233;SDS011;26968;42.686;23.352;2022-09-21T00:51:50;6.45;;;4.50;;
41233;SDS011;26968;42.686;23.352;2022-09-21T00:54:22;8.32;;;4.55;;
41233;SDS011;26968;42.686;23.352;2022-09-21T00:56:53;7.70;;;4.20;;
41233;SDS011;26968;42.686;23.352;2022-09-21T00:59:19;6.57;;;3.80;;
41233;SDS011;26968;42.686;23.352;2022-09-21T01:01:45;5.78;;;3.78;;
41233;SDS011;26968;42.686;23.352;2022-09-21T01:04:11;7.30;;;3.65;;
41233;SDS011;26968;42.686;23.352;2022-09-21T01:06:40;8.32;;;4.68;;
41233;SDS011;26968;42.686;23.352;2022-09-21T01:09:06;7.07;;;3.63;;
41233;SDS011;26968;42.686;23.352;2022-09-21T01:11:42;7.35;;;3.35;;
41233;SDS011;26968;42.686;23.352;2022-09-21T01:14:33;4.15;;;3.38;;
41233;SDS011;26968;42.686;23.352;2022-09-21T01:17:11;6.15;;;3.35;;
41233;SDS011;26968;42.686;23.352;2022-09-21T01:31:27;7.63;;;3.78;;
41233;SDS011;26968;42.686;23.352;2022-09-21T01:34:00;6.05;;;3.67;;
41233;SDS011;26968;42.686;23.352;2022-09-21T01:36:31;14.73;;;4.00;;
41233;SDS011;26968;42.686;23.352;2022-09-21T01:39:06;6.45;;;4.07;;
41233;SDS011;26968;42.686;23.352;2022-09-21T01:41:35;8.40;;;3.90;;
41233;SDS011;26968;42.686;23.352;2022-09-21T01:44:05;6.65;;;4.05;;
41233;SDS011;26968;42.686;23.352;2022-09-21T01:46:35;9.45;;;4.13;;
41233;SDS011;26968;42.686;23.352;2022-09-21T01:49:04;6.95;;;4.55;;
41233;SDS011;26968;42.686;23.352;2022-09-21T01:51:35;8.23;;;4.25;;
41233;SDS011;26968;42.686;23.352;2022-09-21T01:54:09;10.80;;;4.50;;
41233;SDS011;26968;42.686;23.352;2022-09-21T01:59:38;5.53;;;4.10;;
41233;SDS011;26968;42.686;23.352;2022-09-21T02:02:16;8.23;;;4.38;;
41233;SDS011;26968;42.686;23.352;2022-09-21T02:04:45;6.60;;;4.50;;
41233;SDS011;26968;42.686;23.352;2022-09-21T02:07:10;11.25;;;5.03;;
41233;SDS011;26968;42.686;23.352;2022-09-21T02:09:36;13.10;;;4.60;;
41233;SDS011;26968;42.686;23.352;2022-09-21T02:12:02;9.32;;;4.82;;
41233;SDS011;26968;42.686;23.352;2022-09-21T02:14:29;14.00;;;4.43;;
41233;SDS011;26968;42.686;23.352;2022-09-21T02:17:02;9.50;;;4.93;;
41233;SDS011;26968;42.686;23.352;2022-09-21T02:22:32;11.02;;;4.78;;
41233;SDS011;26968;42.686;23.352;2022-09-21T02:25:09;8.30;;;4.05;;
41233;SDS011;26968;42.686;23.352;2022-09-21T02:27:45;8.18;;;3.88;;
41233;SDS011;26968;42.686;23.352;2022-09-21T02:30:20;5.43;;;3.53;;
41233;SDS011;26968;42.686;23.352;2022-09-21T02:38:49;6.32;;;3.70;;
41233;SDS011;26968;42.686;23.352;2022-09-21T02:41:25;9.02;;;3.67;;
41233;SDS011;26968;42.686;23.352;2022-09-21T02:44:06;5.03;;;3.58;;
41233;SDS011;26968;42.686;23.352;2022-09-21T02:49:18;5.88;;;3.58;;
41233;SDS011;26968;42.686;23.352;2022-09-21T02:51:48;4.25;;;2.97;;
41233;SDS011;26968;42.686;23.352;2022-09-21T02:54:16;3.90;;;2.55;;
41233;SDS011;26968;42.686;23.352;2022-09-21T02:56:45;5.13;;;2.90;;
41233;SDS011;26968;42.686;23.352;2022-09-21T02:59:12;6.00;;;3.28;;
41233;SDS011;26968;42.686;23.352;2022-09-21T03:01:39;5.22;;;3.22;;
41233;SDS011;26968;42.686;23.352;2022-09-21T03:04:05;5.63;;;2.83;;
41233;SDS011;26968;42.686;23.352;2022-09-21T03:06:31;4.30;;;3.00;;
41233;SDS011;26968;42.686;23.352;2022-09-21T03:08:57;4.97;;;3.13;;
41233;SDS011;26968;42.686;23.352;2022-09-21T03:11:23;6.25;;;3.53;;
41233;SDS011;26968;42.686;23.352;2022-09-21T03:13:49;8.25;;;3.40;;
41233;SDS011;26968;42.686;23.352;2022-09-21T03:16:15;7.85;;;3.33;;
41233;SDS011;26968;42.686;23.352;2022-09-21T03:18:40;5.78;;;3.83;;
41233;SDS011;26968;42.686;23.352;2022-09-21T03:21:08;6.50;;;3.65;;
41233;SDS011;26968;42.686;23.352;2022-09-21T03:23:34;4.95;;;3.60;;
41233;SDS011;26968;42.686;23.352;2022-09-21T03:26:00;6.28;;;3.65;;
41233;SDS011;26968;42.686;23.352;2022-09-21T03:28:26;11.02;;;3.70;;
41233;SDS011;26968;42.686;23.352;2022-09-21T03:30:51;10.55;;;4.07;;
41233;SDS011;26968;42.686;23.352;2022-09-21T03:33:17;8.65;;;3.90;;
41233;SDS011;26968;42.686;23.352;2022-09-21T03:35:48;6.00;;;4.25;;
41233;SDS011;26968;42.686;23.352;2022-09-21T03:38:14;7.25;;;4.93;;
41233;SDS011;26968;42.686;23.352;2022-09-21T03:40:43;6.97;;;4.20;;
41233;SDS011;26968;42.686;23.352;2022-09-21T03:43:13;6.70;;;4.47;;
41233;SDS011;26968;42.686;23.352;2022-09-21T03:45:39;10.63;;;5.50;;
41233;SDS011;26968;42.686;23.352;2022-09-21T03:48:06;12.32;;;5.45;;
41233;SDS011;26968;42.686;23.352;2022-09-21T03:50:32;9.35;;;4.90;;
41233;SDS011;26968;42.686;23.352;2022-09-21T03:52:57;15.98;;;5.63;;
41233;SDS011;26968;42.686;23.352;2022-09-21T03:55:24;11.25;;;4.45;;
41233;SDS011;26968;42.686;23.352;2022-09-21T03:57:50;7.35;;;4.43;;
41233;SDS011;26968;42.686;23.352;2022-09-21T04:00:16;8.50;;;3.97;;
41233;SDS011;26968;42.686;23.352;2022-09-21T04:02:41;15.93;;;3.78;;
41233;SDS011;26968;42.686;23.352;2022-09-21T04:05:07;23.05;;;5.18;;
41233;SDS011;26968;42.686;23.352;2022-09-21T04:07:34;10.10;;;4.55;;
41233;SDS011;26968;42.686;23.352;2022-09-21T04:10:00;14.00;;;5.28;;
41233;SDS011;26968;42.686;23.352;2022-09-21T04:12:28;20.88;;;5.50;;
41233;SDS011;26968;42.686;23.352;2022-09-21T04:14:53;11.25;;;6.07;;
41233;SDS011;26968;42.686;23.352;2022-09-21T04:17:19;16.13;;;7.57;;
41233;SDS011;26968;42.686;23.352;2022-09-21T04:19:44;18.08;;;7.60;;
41233;SDS011;26968;42.686;23.352;2022-09-21T04:22:10;13.77;;;7.47;;
41233;SDS011;26968;42.686;23.352;2022-09-21T04:24:39;13.85;;;6.57;;
41233;SDS011;26968;42.686;23.352;2022-09-21T04:27:09;15.77;;;7.17;;
41233;SDS011;26968;42.686;23.352;2022-09-21T04:29:36;8.73;;;6.15;;
41233;SDS011;26968;42.686;23.352;2022-09-21T04:32:02;13.05;;;5.95;;
41233;SDS011;26968;42.686;23.352;2022-09-21T04:34:28;17.10;;;6.88;;
41233;SDS011;26968;42.686;23.352;2022-09-21T04:36:55;19.25;;;7.50;;
41233;SDS011;26968;42.686;23.352;2022-09-21T04:39:22;24.23;;;8.38;;
41233;SDS011;26968;42.686;23.352;2022-09-21T04:41:48;15.48;;;7.55;;
41233;SDS011;26968;42.686;23.352;2022-09-21T04:44:13;13.23;;;6.93;;
41233;SDS011;26968;42.686;23.352;2022-09-21T04:46:38;17.67;;;7.40;;
41233;SDS011;26968;42.686;23.352;2022-09-21T04:49:04;21.70;;;6.65;;
41233;SDS011;26968;42.686;23.352;2022-09-21T04:51:29;18.50;;;7.25;;
41233;SDS011;26968;42.686;23.352;2022-09-21T04:53:55;20.17;;;7.25;;
41233;SDS011;26968;42.686;23.352;2022-09-21T04:56:21;23.85;;;7.68;;
41233;SDS011;26968;42.686;23.352;2022-09-21T04:58:46;19.98;;;7.82;;
41233;SDS011;26968;42.686;23.352;2022-09-21T05:01:12;13.07;;;5.78;;
41233;SDS011;26968;42.686;23.352;2022-09-21T05:03:37;18.75;;;5.88;;
41233;SDS011;26968;42.686;23.352;2022-09-21T05:06:03;22.80;;;6.75;;
41233;SDS011;26968;42.686;23.352;2022-09-21T05:08:29;16.33;;;5.82;;
41233;SDS011;26968;42.686;23.352;2022-09-21T05:11:14;19.08;;;5.72;;
41233;SDS011;26968;42.686;23.352;2022-09-21T05:13:43;16.25;;;6.75;;
41233;SDS011;26968;42.686;23.352;2022-09-21T05:16:09;14.27;;;6.43;;
41233;SDS011;26968;42.686;23.352;2022-09-21T05:18:35;15.23;;;5.70;;
41233;SDS011;26968;42.686;23.352;2022-09-21T05:21:01;18.05;;;6.00;;
41233;SDS011;26968;42.686;23.352;2022-09-21T05:23:28;13.63;;;5.50;;
41233;SDS011;26968;42.686;23.352;2022-09-21T05:25:55;12.45;;;6.28;;
41233;SDS011;26968;42.686;23.352;2022-09-21T05:28:21;24.02;;;8.07;;
41233;SDS011;26968;42.686;23.352;2022-09-21T05:30:50;23.27;;;8.23;;
41233;SDS011;26968;42.686;23.352;2022-09-21T05:33:21;22.17;;;6.15;;
41233;SDS011;26968;42.686;23.352;2022-09-21T05:38:19;21.55;;;5.45;;
41233;SDS011;26968;42.686;23.352;2022-09-21T05:40:45;28.92;;;7.40;;
41233;SDS011;26968;42.686;23.352;2022-09-21T05:43:14;23.67;;;7.10;;
41233;SDS011;26968;42.686;23.352;2022-09-21T05:45:42;24.13;;;7.22;;
41233;SDS011;26968;42.686;23.352;2022-09-21T05:48:12;24.60;;;6.10;;
41233;SDS011;26968;42.686;23.352;2022-09-21T06:01:34;21.23;;;6.68;;
41233;SDS011;26968;42.686;23.352;2022-09-21T06:04:25;20.65;;;7.88;;
41233;SDS011;26968;42.686;23.352;2022-09-21T06:06:54;15.70;;;6.53;;
41233;SDS011;26968;42.686;23.352;2022-09-21T06:09:29;29.15;;;7.30;;
41233;SDS011;26968;42.686;23.352;2022-09-21T06:11:54;23.83;;;7.57;;
41233;SDS011;26968;42.686;23.352;2022-09-21T06:14:19;18.45;;;7.78;;
41233;SDS011;26968;42.686;23.352;2022-09-21T06:16:49;14.70;;;6.85;;
41233;SDS011;26968;42.686;23.352;2022-09-21T06:19:16;18.23;;;5.78;;
41233;SDS011;26968;42.686;23.352;2022-09-21T06:21:42;12.43;;;5.55;;
41233;SDS011;26968;42.686;23.352;2022-09-21T06:24:08;15.68;;;5.45;;
41233;SDS011;26968;42.686;23.352;2022-09-21T06:26:33;14.18;;;6.10;;
41233;SDS011;26968;42.686;23.352;2022-09-21T06:28:59;25.00;;;5.63;;
41233;SDS011;26968;42.686;23.352;2022-09-21T06:31:27;14.63;;;5.70;;
41233;SDS011;26968;42.686;23.352;2022-09-21T06:33:53;19.67;;;5.18;;
41233;SDS011;26968;42.686;23.352;2022-09-21T06:36:19;26.58;;;5.65;;
41233;SDS011;26968;42.686;23.352;2022-09-21T06:38:44;20.83;;;5.47;;
41233;SDS011;26968;42.686;23.352;2022-09-21T06:41:10;15.63;;;5.90;;
41233;SDS011;26968;42.686;23.352;2022-09-21T06:43:35;18.60;;;5.60;;
41233;SDS011;26968;42.686;23.352;2022-09-21T06:46:01;14.77;;;4.47;;
41233;SDS011;26968;42.686;23.352;2022-09-21T06:48:28;8.63;;;2.97;;
41233;SDS011;26968;42.686;23.352;2022-09-21T06:50:58;6.82;;;3.10;;
41233;SDS011;26968;42.686;23.352;2022-09-21T06:53:28;5.70;;;3.10;;
41233;SDS011;26968;42.686;23.352;2022-09-21T06:56:05;3.92;;;2.25;;
41233;SDS011;26968;42.686;23.352;2022-09-21T06:58:32;2.97;;;2.10;;
41233;SDS011;26968;42.686;23.352;2022-09-21T07:03:30;12.02;;;3.22;;
41233;SDS011;26968;42.686;23.352;2022-09-21T07:05:56;7.68;;;3.53;;
41233;SDS011;26968;42.686;23.352;2022-09-21T07:08:21;8.23;;;3.40;;
41233;SDS011;26968;42.686;23.352;2022-09-21T07:10:47;9.63;;;3.42;;
41233;SDS011;26968;42.686;23.352;2022-09-21T07:13:13;7.85;;;3.47;;
41233;SDS011;26968;42.686;23.352;2022-09-21T07:15:42;9.38;;;4.07;;
41233;SDS011;26968;42.686;23.352;2022-09-21T07:18:13;7.88;;;3.60;;
41233;SDS011;26968;42.686;23.352;2022-09-21T07:20:39;9.85;;;3.92;;
41233;SDS011;26968;42.686;23.352;2022-09-21T07:23:11;4.55;;;2.95;;
41233;SDS011;26968;42.686;23.352;2022-09-21T07:25:39;4.63;;;2.88;;
41233;SDS011;26968;42.686;23.352;2022-09-21T07:28:06;11.13;;;5.47;;
41233;SDS011;26968;42.686;23.352;2022-09-21T07:30:32;12.52;;;3.67;;
41233;SDS011;26968;42.686;23.352;2022-09-21T07:32:57;5.78;;;3.35;;
41233;SDS011;26968;42.686;23.352;2022-09-21T07:35:23;5.75;;;3.55;;
41233;SDS011;26968;42.686;23.352;2022-09-21T07:37:48;8.95;;;2.92;;
41233;SDS011;26968;42.686;23.352;2022-09-21T07:40:14;7.90;;;3.00;;
41233;SDS011;26968;42.686;23.352;2022-09-21T07:42:39;5.40;;;2.90;;
41233;SDS011;26968;42.686;23.352;2022-09-21T07:45:05;10.40;;;3.10;;
41233;SDS011;26968;42.686;23.352;2022-09-21T07:47:31;4.80;;;2.92;;
41233;SDS011;26968;42.686;23.352;2022-09-21T07:49:56;8.57;;;3.00;;
41233;SDS011;26968;42.686;23.352;2022-09-21T07:52:21;6.43;;;3.50;;
41233;SDS011;26968;42.686;23.352;2022-09-21T07:54:47;5.38;;;3.25;;
41233;SDS011;26968;42.686;23.352;2022-09-21T07:57:12;8.13;;;3.45;;
41233;SDS011;26968;42.686;23.352;2022-09-21T07:59:56;7.80;;;4.20;;
41233;SDS011;26968;42.686;23.352;2022-09-21T08:02:22;5.55;;;3.20;;
41233;SDS011;26968;42.686;23.352;2022-09-21T08:04:48;4.97;;;3.42;;
41233;SDS011;26968;42.686;23.352;2022-09-21T08:07:13;6.88;;;2.60;;
41233;SDS011;26968;42.686;23.352;2022-09-21T08:09:38;7.28;;;2.90;;
41233;SDS011;26968;42.686;23.352;2022-09-21T08:12:05;9.23;;;3.03;;
41233;SDS011;26968;42.686;23.352;2022-09-21T08:14:31;7.88;;;3.20;;
41233;SDS011;26968;42.686;23.352;2022-09-21T08:16:56;11.43;;;3.13;;
41233;SDS011;26968;42.686;23.352;2022-09-21T08:19:22;5.25;;;3.00;;
41233;SDS011;26968;42.686;23.352;2022-09-21T08:21:49;7.97;;;3.28;;
41233;SDS011;26968;42.686;23.352;2022-09-21T08:24:15;7.60;;;3.28;;
41233;SDS011;26968;42.686;23.352;2022-09-21T08:26:40;6.18;;;2.85;;
41233;SDS011;26968;42.686;23.352;2022-09-21T08:29:06;7.05;;;3.30;;
41233;SDS011;26968;42.686;23.352;2022-09-21T08:31:32;5.95;;;3.00;;
41233;SDS011;26968;42.686;23.352;2022-09-21T08:33:58;6.97;;;2.60;;
41233;SDS011;26968;42.686;23.352;2022-09-21T08:36:24;3.25;;;2.40;;
41233;SDS011;26968;42.686;23.352;2022-09-21T08:38:50;8.07;;;2.80;;
41233;SDS011;26968;42.686;23.352;2022-09-21T08:41:16;6.15;;;2.58;;
41233;SDS011;26968;42.686;23.352;2022-09-21T08:46:50;7.65;;;2.05;;
41233;SDS011;26968;42.686;23.352;2022-09-21T08:49:27;4.05;;;2.10;;
41233;SDS011;26968;42.686;23.352;2022-09-21T08:51:56;6.65;;;2.10;;
41233;SDS011;26968;42.686;23.352;2022-09-21T08:54:27;2.67;;;1.70;;
41233;SDS011;26968;42.686;23.352;2022-09-21T08:56:58;5.70;;;1.98;;
41233;SDS011;26968;42.686;23.352;2022-09-21T08:59:24;4.28;;;1.67;;
41233;SDS011;26968;42.686;23.352;2022-09-21T09:01:55;5.50;;;1.98;;
41233;SDS011;26968;42.686;23.352;2022-09-21T09:04:26;6.90;;;2.33;;
41233;SDS011;26968;42.686;23.352;2022-09-21T09:07:05;2.97;;;1.90;;
41233;SDS011;26968;42.686;23.352;2022-09-21T09:23:57;6.43;;;1.60;;
41233;SDS011;26968;42.686;23.352;2022-09-21T09:26:39;3.35;;;1.73;;
41233;SDS011;26968;42.686;23.352;2022-09-21T09:29:21;4.45;;;2.20;;
41233;SDS011;26968;42.686;23.352;2022-09-21T09:31:56;7.03;;;1.90;;
41233;SDS011;26968;42.686;23.352;2022-09-21T09:36:55;2.35;;;1.50;;
41233;SDS011;26968;42.686;23.352;2022-09-21T09:39:23;6.75;;;1.80;;
41233;SDS011;26968;42.686;23.352;2022-09-21T09:41:54;6.32;;;1.80;;
41233;SDS011;26968;42.686;23.352;2022-09-21T09:52:52;1.67;;;1.45;;
41233;SDS011;26968;42.686;23.352;2022-09-21T09:55:27;5.28;;;1.80;;
41233;SDS011;26968;42.686;23.352;2022-09-21T09:58:02;6.32;;;1.92;;
41233;SDS011;26968;42.686;23.352;2022-09-21T10:00:28;1.95;;;1.13;;
41233;SDS011;26968;42.686;23.352;2022-09-21T10:02:54;3.25;;;1.63;;
41233;SDS011;26968;42.686;23.352;2022-09-21T10:05:24;4.88;;;2.20;;
41233;SDS011;26968;42.686;23.352;2022-09-21T10:07:56;2.78;;;1.70;;
41233;SDS011;26968;42.686;23.352;2022-09-21T10:12:53;6.68;;;1.80;;
41233;SDS011;26968;42.686;23.352;2022-09-21T10:15:22;2.35;;;1.55;;
41233;SDS011;26968;42.686;23.352;2022-09-21T10:18:32;2.65;;;1.60;;
41233;SDS011;26968;42.686;23.352;2022-09-21T10:21:02;4.88;;;1.70;;
41233;SDS011;26968;42.686;23.352;2022-09-21T10:23:33;3.60;;;1.92;;
41233;SDS011;26968;42.686;23.352;2022-09-21T10:26:16;3.08;;;1.67;;
41233;SDS011;26968;42.686;23.352;2022-09-21T10:28:56;7.38;;;1.35;;
41233;SDS011;26968;42.686;23.352;2022-09-21T10:31:29;3.83;;;1.40;;
41233;SDS011;26968;42.686;23.352;2022-09-21T10:34:13;4.03;;;1.60;;
41233;SDS011;26968;42.686;23.352;2022-09-21T10:36:41;5.07;;;1.50;;
41233;SDS011;26968;42.686;23.352;2022-09-21T10:39:20;5.47;;;1.35;;
41233;SDS011;26968;42.686;23.352;2022-09-21T10:41:58;1.98;;;1.02;;
41233;SDS011;26968;42.686;23.352;2022-09-21T10:44:40;4.78;;;1.25;;
41233;SDS011;26968;42.686;23.352;2022-09-21T10:50:20;6.15;;;1.60;;
41233;SDS011;26968;42.686;23.352;2022-09-21T10:55:38;1.43;;;0.90;;
41233;SDS011;26968;42.686;23.352;2022-09-21T10:58:10;1.40;;;0.70;;
41233;SDS011;26968;42.686;23.352;2022-09-21T11:00:42;3.10;;;1.40;;
41233;SDS011;26968;42.686;23.352;2022-09-21T11:03:27;4.38;;;1.58;;
41233;SDS011;26968;42.686;23.352;2022-09-21T11:05:54;3.08;;;0.90;;
41233;SDS011;26968;42.686;23.352;2022-09-21T11:08:26;4.63;;;1.10;;
41233;SDS011;26968;42.686;23.352;2022-09-21T11:11:23;3.30;;;1.00;;
41233;SDS011;26968;42.686;23.352;2022-09-21T11:16:50;4.10;;;1.20;;
41233;SDS011;26968;42.686;23.352;2022-09-21T11:22:04;1.52;;;0.77;;
41233;SDS011;26968;42.686;23.352;2022-09-21T11:27:20;3.33;;;0.82;;
41233;SDS011;26968;42.686;23.352;2022-09-21T11:30:12;2.05;;;0.98;;
41233;SDS011;26968;42.686;23.352;2022-09-21T11:48:41;6.78;;;1.20;;
41233;SDS011;26968;42.686;23.352;2022-09-21T12:04:42;4.47;;;1.80;;
41233;SDS011;26968;42.686;23.352;2022-09-21T12:21:35;6.60;;;1.40;;
41233;SDS011;26968;42.686;23.352;2022-09-21T12:24:28;0.82;;;0.82;;
41233;SDS011;26968;42.686;23.352;2022-09-21T12:26:56;1.58;;;0.88;;
41233;SDS011;26968;42.686;23.352;2022-09-21T12:29:32;2.65;;;1.20;;
41233;SDS011;26968;42.686;23.352;2022-09-21T12:34:40;3.65;;;1.35;;
41233;SDS011;26968;42.686;23.352;2022-09-21T12:39:59;4.63;;;1.75;;
41233;SDS011;26968;42.686;23.352;2022-09-21T12:42:59;15.27;;;2.05;;
41233;SDS011;26968;42.686;23.352;2022-09-21T12:45:34;3.30;;;1.52;;
41233;SDS011;26968;42.686;23.352;2022-09-21T12:48:16;1.75;;;0.90;;
41233;SDS011;26968;42.686;23.352;2022-09-21T12:50:48;6.65;;;4.68;;
41233;SDS011;26968;42.686;23.352;2022-09-21T12:53:21;5.93;;;1.27;;
41233;SDS011;26968;42.686;23.352;2022-09-21T13:04:44;3.70;;;1.00;;
41233;SDS011;26968;42.686;23.352;2022-09-21T13:07:19;9.35;;;1.30;;
41233;SDS011;26968;42.686;23.352;2022-09-21T13:09:48;5.50;;;1.67;;
41233;SDS011;26968;42.686;23.352;2022-09-21T13:12:28;7.43;;;1.60;;
41233;SDS011;26968;42.686;23.352;2022-09-21T13:15:11;3.83;;;1.00;;
41233;SDS011;26968;42.686;23.352;2022-09-21T13:17:46;3.72;;;1.38;;
41233;SDS011;26968;42.686;23.352;2022-09-21T13:20:26;2.00;;;1.10;;
41233;SDS011;26968;42.686;23.352;2022-09-21T13:22:58;1.50;;;0.80;;
41233;SDS011;26968;42.686;23.352;2022-09-21T13:25:26;7.13;;;1.30;;
41233;SDS011;26968;42.686;23.352;2022-09-21T13:33:40;1.88;;;0.90;;
41233;SDS011;26968;42.686;23.352;2022-09-21T13:36:33;3.90;;;1.35;;
41233;SDS011;26968;42.686;23.352;2022-09-21T13:41:38;1.92;;;0.70;;
41233;SDS011;26968;42.686;23.352;2022-09-21T13:59:40;9.13;;;1.92;;
41233;SDS011;26968;42.686;23.352;2022-09-21T14:02:21;4.03;;;1.30;;
41233;SDS011;26968;42.686;23.352;2022-09-21T14:04:55;1.98;;;1.55;;
41233;SDS011;26968;42.686;23.352;2022-09-21T14:07:41;4.82;;;1.42;;
41233;SDS011;26968;42.686;23.352;2022-09-21T14:10:07;4.45;;;1.65;;
41233;SDS011;26968;42.686;23.352;2022-09-21T14:12:38;3.22;;;1.70;;
41233;SDS011;26968;42.686;23.352;2022-09-21T14:17:40;4.53;;;1.80;;
41233;SDS011;26968;42.686;23.352;2022-09-21T14:25:59;2.88;;;1.73;;
41233;SDS011;26968;42.686;23.352;2022-09-21T14:28:33;3.05;;;1.80;;
41233;SDS011;26968;42.686;23.352;2022-09-21T14:31:07;9.82;;;2.17;;
41233;SDS011;26968;42.686;23.352;2022-09-21T14:33:54;2.30;;;1.80;;
41233;SDS011;26968;42.686;23.352;2022-09-21T14:36:25;3.53;;;1.85;;
41233;SDS011;26968;42.686;23.352;2022-09-21T14:39:00;2.75;;;1.60;;
41233;SDS011;26968;42.686;23.352;2022-09-21T14:41:35;2.28;;;1.33;;
41233;SDS011;26968;42.686;23.352;2022-09-21T14:44:03;1.70;;;1.00;;
41233;SDS011;26968;42.686;23.352;2022-09-21T14:52:11;9.90;;;1.98;;
41233;SDS011;26968;42.686;23.352;2022-09-21T15:00:22;5.05;;;2.13;;
41233;SDS011;26968;42.686;23.352;2022-09-21T15:06:21;1.88;;;1.50;;
41233;SDS011;26968;42.686;23.352;2022-09-21T15:09:23;4.55;;;2.05;;
41233;SDS011;26968;42.686;23.352;2022-09-21T15:12:25;4.90;;;1.98;;
41233;SDS011;26968;42.686;23.352;2022-09-21T15:17:55;4.03;;;2.13;;
41233;SDS011;26968;42.686;23.352;2022-09-21T15:20:24;5.85;;;2.17;;
41233;SDS011;26968;42.686;23.352;2022-09-21T15:22:57;2.78;;;2.10;;
41233;SDS011;26968;42.686;23.352;2022-09-21T15:25:24;2.47;;;2.03;;
41233;SDS011;26968;42.686;23.352;2022-09-21T15:27:54;2.77;;;2.10;;
41233;SDS011;26968;42.686;23.352;2022-09-21T15:30:24;5.20;;;1.98;;
41233;SDS011;26968;42.686;23.352;2022-09-21T15:32:56;3.92;;;1.75;;
41233;SDS011;26968;42.686;23.352;2022-09-21T15:35:24;3.40;;;2.17;;
41233;SDS011;26968;42.686;23.352;2022-09-21T15:37:57;2.78;;;1.70;;
41233;SDS011;26968;42.686;23.352;2022-09-21T15:40:33;3.97;;;1.70;;
41233;SDS011;26968;42.686;23.352;2022-09-21T15:45:37;3.33;;;2.00;;
41233;SDS011;26968;42.686;23.352;2022-09-21T15:48:19;3.28;;;1.75;;
41233;SDS011;26968;42.686;23.352;2022-09-21T15:50:46;5.10;;;1.70;;
41233;SDS011;26968;42.686;23.352;2022-09-21T15:53:21;4.47;;;2.35;;
41233;SDS011;26968;42.686;23.352;2022-09-21T15:55:55;5.25;;;1.90;;
41233;SDS011;26968;42.686;23.352;2022-09-21T15:58:42;2.65;;;2.05;;
41233;SDS011;26968;42.686;23.352;2022-09-21T16:01:10;3.13;;;1.85;;
41233;SDS011;26968;42.686;23.352;2022-09-21T16:03:38;3.30;;;1.80;;
41233;SDS011;26968;42.686;23.352;2022-09-21T16:08:46;6.50;;;2.50;;
41233;SDS011;26968;42.686;23.352;2022-09-21T16:11:16;4.55;;;2.47;;
41233;SDS011;26968;42.686;23.352;2022-09-21T16:14:02;7.95;;;2.95;;
41233;SDS011;26968;42.686;23.352;2022-09-21T16:20:43;8.57;;;4.68;;
41233;SDS011;26968;42.686;23.352;2022-09-21T16:23:20;7.70;;;3.78;;
41233;SDS011;26968;42.686;23.352;2022-09-21T16:25:53;4.05;;;2.72;;
41233;SDS011;26968;42.686;23.352;2022-09-21T16:30:51;3.70;;;2.55;;
41233;SDS011;26968;42.686;23.352;2022-09-21T16:33:41;4.78;;;2.72;;
41233;SDS011;26968;42.686;23.352;2022-09-21T16:38:50;4.78;;;2.53;;
41233;SDS011;26968;42.686;23.352;2022-09-21T16:41:19;8.95;;;2.92;;
41233;SDS011;26968;42.686;23.352;2022-09-21T16:43:46;5.90;;;3.08;;
41233;SDS011;26968;42.686;23.352;2022-09-21T16:46:14;6.45;;;2.28;;
41233;SDS011;26968;42.686;23.352;2022-09-21T16:48:40;5.80;;;2.72;;
41233;SDS011;26968;42.686;23.352;2022-09-21T16:51:12;11.80;;;6.13;;
41233;SDS011;26968;42.686;23.352;2022-09-21T16:53:39;9.48;;;3.50;;
41233;SDS011;26968;42.686;23.352;2022-09-21T16:56:08;5.80;;;3.50;;
41233;SDS011;26968;42.686;23.352;2022-09-21T16:58:38;6.28;;;2.75;;
41233;SDS011;26968;42.686;23.352;2022-09-21T17:01:04;10.48;;;3.45;;
41233;SDS011;26968;42.686;23.352;2022-09-21T17:03:34;16.63;;;3.90;;
41233;SDS011;26968;42.686;23.352;2022-09-21T17:05:59;12.13;;;5.10;;
41233;SDS011;26968;42.686;23.352;2022-09-21T17:08:25;9.68;;;3.65;;
41233;SDS011;26968;42.686;23.352;2022-09-21T17:10:51;8.23;;;4.25;;
41233;SDS011;26968;42.686;23.352;2022-09-21T17:13:17;5.75;;;3.60;;
41233;SDS011;26968;42.686;23.352;2022-09-21T17:15:43;6.65;;;3.83;;
41233;SDS011;26968;42.686;23.352;2022-09-21T17:18:13;12.13;;;4.18;;
41233;SDS011;26968;42.686;23.352;2022-09-21T17:20:42;6.93;;;3.60;;
41233;SDS011;26968;42.686;23.352;2022-09-21T17:23:09;8.60;;;4.68;;
41233;SDS011;26968;42.686;23.352;2022-09-21T17:25:35;12.48;;;4.72;;
41233;SDS011;26968;42.686;23.352;2022-09-21T17:28:02;10.63;;;5.07;;
41233;SDS011;26968;42.686;23.352;2022-09-21T17:30:35;13.18;;;6.13;;
41233;SDS011;26968;42.686;23.352;2022-09-21T17:33:02;13.05;;;6.80;;
41233;SDS011;26968;42.686;23.352;2022-09-21T17:35:28;13.13;;;5.93;;
41233;SDS011;26968;42.686;23.352;2022-09-21T17:37:57;11.20;;;5.55;;
41233;SDS011;26968;42.686;23.352;2022-09-21T17:40:24;8.88;;;5.82;;
41233;SDS011;26968;42.686;23.352;2022-09-21T17:42:51;10.52;;;5.82;;
41233;SDS011;26968;42.686;23.352;2022-09-21T17:50:44;13.43;;;6.53;;
41233;SDS011;26968;42.686;23.352;2022-09-21T17:53:09;7.70;;;5.70;;
41233;SDS011;26968;42.686;23.352;2022-09-21T17:55:55;9.30;;;5.97;;
41233;SDS011;26968;42.686;23.352;2022-09-21T18:03:48;8.32;;;6.38;;
41233;SDS011;26968;42.686;23.352;2022-09-21T18:06:15;7.97;;;6.15;;
41233;SDS011;26968;42.686;23.352;2022-09-21T18:08:41;8.18;;;5.80;;
41233;SDS011;26968;42.686;23.352;2022-09-21T18:17:46;8.88;;;6.07;;
41233;SDS011;26968;42.686;23.352;2022-09-21T18:23:17;9.50;;;5.95;;
41233;SDS011;26968;42.686;23.352;2022-09-21T18:25:46;8.85;;;5.93;;
41233;SDS011;26968;42.686;23.352;2022-09-21T18:31:10;10.88;;;7.22;;
41233;SDS011;26968;42.686;23.352;2022-09-21T18:36:44;12.82;;;7.25;;
41233;SDS011;26968;42.686;23.352;2022-09-21T18:44:30;12.20;;;6.68;;
41233;SDS011;26968;42.686;23.352;2022-09-21T18:55:10;10.43;;;6.97;;
41233;SDS011;26968;42.686;23.352;2022-09-21T18:57:41;10.88;;;7.22;;